createdAt,value
2017-09-10T00:01:21.198Z,71.40
2017-09-10T00:03:50.719Z,71.40
2017-09-10T00:06:19.493Z,71.30
2017-09-10T00:08:54.415Z,71.20
2017-09-10T00:11:23.122Z,71.40
2017-09-10T00:13:51.807Z,71.40
2017-09-10T00:16:20.495Z,71.50
2017-09-10T00:18:49.179Z,71.60
2017-09-10T00:21:17.878Z,71.60
2017-09-10T00:23:52.738Z,71.60
2017-09-10T00:26:21.424Z,71.80
2017-09-10T00:28:50.106Z,72.00
2017-09-10T00:31:18.799Z,71.90
2017-09-10T00:33:47.483Z,71.80
2017-09-10T00:36:16.191Z,71.90
2017-09-10T00:38:45.643Z,71.90
2017-09-10T00:41:14.319Z,71.80
2017-09-10T00:43:43.019Z,71.70
2017-09-10T00:46:11.707Z,71.70
2017-09-10T00:48:40.412Z,71.60
2017-09-10T00:51:10.103Z,71.50
2017-09-10T00:53:38.795Z,71.50
2017-09-10T00:56:07.505Z,71.60
2017-09-10T00:58:42.429Z,71.60
2017-09-10T01:01:17.336Z,71.40
2017-09-10T01:03:52.271Z,71.30
2017-09-10T01:06:27.240Z,71.20
2017-09-10T01:08:55.928Z,71.00
2017-09-10T01:11:24.603Z,70.90
2017-09-10T01:13:53.296Z,70.70
2017-09-10T01:16:21.997Z,70.70
2017-09-10T01:18:50.772Z,70.90
2017-09-10T01:21:19.487Z,70.80
2017-09-10T01:23:48.171Z,70.60
2017-09-10T01:26:16.854Z,70.50
2017-09-10T01:28:45.563Z,70.40
2017-09-10T01:31:14.238Z,70.50
2017-09-10T01:33:42.929Z,70.40
2017-09-10T01:36:12.504Z,70.30
2017-09-10T01:38:47.504Z,70.40
2017-09-10T01:41:16.199Z,70.40
2017-09-10T01:43:45.750Z,70.50
2017-09-10T01:46:14.435Z,70.50
2017-09-10T01:48:43.990Z,70.60
2017-09-10T01:51:13.523Z,70.60
2017-09-10T01:53:42.218Z,70.80
2017-09-10T01:56:17.055Z,70.70
2017-09-10T01:58:51.887Z,70.70
2017-09-10T02:01:20.570Z,70.50
2017-09-10T02:03:50.275Z,70.50
2017-09-10T02:06:18.959Z,70.30
2017-09-10T02:08:53.947Z,70.40
2017-09-10T02:11:22.643Z,70.40
2017-09-10T02:13:51.335Z,70.40
2017-09-10T02:16:20.019Z,70.50
2017-09-10T02:18:48.708Z,71.40
2017-09-10T02:21:18.248Z,70.50
2017-09-10T02:23:46.946Z,70.40
2017-09-10T02:26:15.627Z,70.50
2017-09-10T02:28:44.312Z,70.60
2017-09-10T02:31:13.004Z,70.70
2017-09-10T02:33:41.795Z,70.70
2017-09-10T02:36:16.871Z,70.70
2017-09-10T02:38:46.402Z,70.60
2017-09-10T02:41:15.083Z,70.50
2017-09-10T02:43:43.900Z,70.50
2017-09-10T02:46:12.551Z,70.60
2017-09-10T02:48:41.263Z,70.60
2017-09-10T02:51:09.951Z,70.60
2017-09-10T02:53:38.635Z,70.70
2017-09-10T02:56:07.323Z,70.50
2017-09-10T02:58:35.999Z,70.70
2017-09-10T03:01:04.713Z,70.70
2017-09-10T03:03:33.392Z,70.90
2017-09-10T03:06:02.084Z,71.00
2017-09-10T03:08:30.769Z,71.00
2017-09-10T03:10:59.451Z,71.10
2017-09-10T03:13:34.315Z,71.00
2017-09-10T03:16:02.994Z,70.90
2017-09-10T03:18:32.531Z,71.00
2017-09-10T03:21:01.218Z,71.00
2017-09-10T03:23:29.907Z,71.20
2017-09-10T03:25:58.614Z,71.20
2017-09-10T03:28:27.295Z,71.30
2017-09-10T03:30:55.983Z,71.10
2017-09-10T03:33:30.946Z,71.20
2017-09-10T03:36:00.479Z,71.50
2017-09-10T03:38:33.155Z,71.50
2017-09-10T03:41:02.687Z,71.60
2017-09-10T03:43:31.368Z,71.60
2017-09-10T03:46:04.063Z,71.40
2017-09-10T03:48:33.604Z,71.10
2017-09-10T03:51:02.313Z,71.00
2017-09-10T03:53:30.996Z,71.00
2017-09-10T03:55:59.680Z,71.00
2017-09-10T03:58:28.382Z,71.00
2017-09-10T04:00:57.071Z,71.20
2017-09-10T04:03:25.782Z,71.20
2017-09-10T04:05:55.357Z,71.10
2017-09-10T04:08:24.048Z,71.10
2017-09-10T04:10:53.727Z,71.40
2017-09-10T04:13:22.403Z,70.90
2017-09-10T04:15:51.122Z,70.80
2017-09-10T04:18:20.579Z,71.00
2017-09-10T04:20:49.259Z,70.60
2017-09-10T04:23:17.954Z,70.60
2017-09-10T04:25:46.632Z,70.50
2017-09-10T04:28:15.330Z,70.50
2017-09-10T04:30:44.015Z,70.30
2017-09-10T04:33:18.977Z,70.40
2017-09-10T04:35:47.657Z,70.30
2017-09-10T04:38:16.342Z,70.30
2017-09-10T04:40:46.895Z,70.30
2017-09-10T04:43:15.583Z,70.40
2017-09-10T04:45:44.266Z,70.50
2017-09-10T04:48:12.981Z,70.40
2017-09-10T04:50:41.658Z,70.50
2017-09-10T04:53:11.190Z,70.60
2017-09-10T04:55:46.125Z,70.70
2017-09-10T04:58:14.860Z,70.70
2017-09-10T05:00:43.550Z,70.80
2017-09-10T05:03:13.114Z,70.90
2017-09-10T05:05:41.772Z,71.00
2017-09-10T05:08:16.710Z,71.00
2017-09-10T05:10:45.399Z,71.00
2017-09-10T05:13:14.109Z,71.20
2017-09-10T05:15:42.791Z,71.30
2017-09-10T05:18:11.488Z,71.40
2017-09-10T05:20:40.175Z,71.60
2017-09-10T05:23:08.854Z,71.60
2017-09-10T05:25:37.551Z,71.70
2017-09-10T05:28:07.103Z,71.80
2017-09-10T05:30:35.802Z,71.90
2017-09-10T05:33:04.499Z,71.80
2017-09-10T05:35:33.192Z,71.70
2017-09-10T05:38:08.223Z,71.50
2017-09-10T05:40:43.160Z,71.40
2017-09-10T05:43:11.867Z,71.20
2017-09-10T05:45:41.408Z,71.20
2017-09-10T05:48:10.947Z,71.00
2017-09-10T05:50:39.634Z,70.90
2017-09-10T05:53:09.303Z,70.70
2017-09-10T05:55:38.083Z,70.40
2017-09-10T05:58:06.771Z,70.50
2017-09-10T06:00:35.451Z,70.40
2017-09-10T06:03:05.172Z,70.40
2017-09-10T06:05:33.846Z,70.60
2017-09-10T06:08:02.555Z,70.40
2017-09-10T06:10:31.416Z,70.50
2017-09-10T06:13:06.362Z,70.50
2017-09-10T06:15:35.044Z,70.40
2017-09-10T06:18:03.728Z,70.40
2017-09-10T06:20:32.411Z,70.40
2017-09-10T06:23:01.084Z,70.30
2017-09-10T06:25:29.792Z,70.30
2017-09-10T06:28:04.597Z,70.00
2017-09-10T06:30:33.295Z,69.90
2017-09-10T06:33:08.206Z,69.80
2017-09-10T06:35:36.911Z,69.90
2017-09-10T06:38:05.583Z,69.90
2017-09-10T06:40:34.261Z,70.10
2017-09-10T06:43:03.827Z,70.80
2017-09-10T06:45:32.507Z,70.10
2017-09-10T06:48:01.216Z,69.90
2017-09-10T06:50:29.907Z,69.80
2017-09-10T06:53:04.802Z,69.70
2017-09-10T06:55:33.479Z,69.70
2017-09-10T06:58:02.156Z,69.60
2017-09-10T07:00:30.845Z,69.20
2017-09-10T07:02:59.523Z,69.00
2017-09-10T07:05:34.491Z,68.80
2017-09-10T07:08:03.194Z,68.70
2017-09-10T07:10:31.888Z,68.50
2017-09-10T07:13:00.685Z,68.40
2017-09-10T07:15:29.425Z,67.90
2017-09-10T07:17:58.229Z,67.80
2017-09-10T07:20:33.320Z,67.50
2017-09-10T07:23:02.133Z,67.20
2017-09-10T07:25:31.056Z,66.60
2017-09-10T07:27:59.962Z,66.30
2017-09-10T07:30:28.841Z,65.50
2017-09-10T07:32:57.608Z,65.80
2017-09-10T07:35:32.738Z,65.70
2017-09-10T07:38:02.328Z,65.50
2017-09-10T07:40:37.368Z,66.10
2017-09-10T07:43:06.134Z,66.20
2017-09-10T07:45:35.717Z,66.20
2017-09-10T07:48:04.407Z,66.80
2017-09-10T07:50:33.081Z,67.50
2017-09-10T07:53:01.885Z,66.40
2017-09-10T07:55:37.109Z,66.30
2017-09-10T07:58:12.241Z,66.10
2017-09-10T08:00:41.123Z,66.10
2017-09-10T08:03:10.017Z,65.50
2017-09-10T08:05:45.030Z,66.40
2017-09-10T08:08:14.011Z,65.40
2017-09-10T08:10:42.904Z,65.00
2017-09-10T08:13:11.642Z,63.90
2017-09-10T08:15:43.201Z,64.00
2017-09-10T08:18:11.878Z,63.20
2017-09-10T08:20:40.566Z,63.00
2017-09-10T08:23:09.250Z,63.00
2017-09-10T08:25:37.927Z,64.20
2017-09-10T08:28:12.886Z,62.60
2017-09-10T08:30:41.567Z,62.70
2017-09-10T08:33:16.488Z,63.20
2017-09-10T08:35:51.393Z,63.10
2017-09-10T08:38:22.064Z,63.40
2017-09-10T08:40:50.738Z,63.40
2017-09-10T08:43:21.437Z,64.40
2017-09-10T08:45:50.127Z,63.50
2017-09-10T08:48:25.013Z,64.00
2017-09-10T08:50:53.764Z,63.70
2017-09-10T08:53:28.807Z,64.00
2017-09-10T08:55:58.282Z,63.40
2017-09-10T08:58:33.068Z,62.90
2017-09-10T09:01:02.756Z,62.80
2017-09-10T09:03:38.019Z,62.70
2017-09-10T09:06:13.023Z,62.10
2017-09-10T09:08:47.887Z,62.50
2017-09-10T09:11:16.588Z,62.50
2017-09-10T09:13:45.280Z,61.70
2017-09-10T09:16:14.081Z,61.80
2017-09-10T09:18:42.752Z,61.80
2017-09-10T09:21:11.426Z,62.50
2017-09-10T09:23:40.130Z,62.10
2017-09-10T09:26:08.818Z,62.70
2017-09-10T09:28:37.490Z,62.60
2017-09-10T09:31:06.186Z,62.20
2017-09-10T09:33:34.864Z,61.70
2017-09-10T09:36:09.809Z,61.30
2017-09-10T09:38:44.736Z,61.80
2017-09-10T09:41:13.500Z,61.40
2017-09-10T09:43:48.484Z,61.70
2017-09-10T09:46:17.167Z,61.40
2017-09-10T09:48:45.858Z,62.20
2017-09-10T09:51:14.883Z,62.30
2017-09-10T09:53:43.605Z,62.60
2017-09-10T09:56:12.290Z,62.70
2017-09-10T09:58:41.843Z,62.10
2017-09-10T10:01:16.674Z,61.40
2017-09-10T10:03:51.671Z,59.80
2017-09-10T10:06:26.668Z,59.30
2017-09-10T10:09:01.727Z,58.50
2017-09-10T10:11:30.856Z,59.70
2017-09-10T10:14:00.612Z,60.20
2017-09-10T10:16:30.310Z,60.20
2017-09-10T10:18:58.976Z,58.30
2017-09-10T10:21:28.331Z,57.30
2017-09-10T10:23:58.485Z,58.10
2017-09-10T10:26:27.962Z,57.40
2017-09-10T10:28:57.696Z,57.30
2017-09-10T10:31:32.882Z,57.60
2017-09-10T10:34:01.742Z,57.80
2017-09-10T10:36:30.431Z,57.50
2017-09-10T10:38:59.661Z,57.80
2017-09-10T10:41:28.354Z,57.80
2017-09-10T10:43:57.190Z,57.80
2017-09-10T10:46:26.777Z,57.00
2017-09-10T10:48:55.518Z,57.40
2017-09-10T10:51:24.296Z,57.70
2017-09-10T10:53:59.177Z,58.30
2017-09-10T10:56:28.056Z,58.20
2017-09-10T10:59:03.215Z,58.20
2017-09-10T11:01:38.132Z,56.80
2017-09-10T11:04:07.043Z,55.10
2017-09-10T11:06:35.720Z,55.60
2017-09-10T11:09:04.403Z,55.60
2017-09-10T11:11:33.088Z,53.30
2017-09-10T11:14:01.807Z,51.90
2017-09-10T11:16:30.499Z,51.50
2017-09-10T11:18:59.189Z,50.00
2017-09-10T11:21:27.871Z,48.40
2017-09-10T11:23:56.551Z,46.90
2017-09-10T11:26:31.371Z,43.30
2017-09-10T11:29:06.272Z,42.60
2017-09-10T11:31:35.017Z,40.20
2017-09-10T11:34:09.977Z,40.50
2017-09-10T11:36:38.676Z,40.00
2017-09-10T11:39:07.355Z,40.30
2017-09-10T11:41:36.038Z,40.20
2017-09-10T11:44:04.733Z,38.20
2017-09-10T11:46:33.408Z,38.60
2017-09-10T11:49:08.336Z,39.20
2017-09-10T11:51:37.013Z,39.50
2017-09-10T11:54:11.955Z,39.60
2017-09-10T11:56:46.905Z,39.80
2017-09-10T11:59:21.775Z,40.10
2017-09-10T12:01:50.471Z,39.60
2017-09-10T12:04:19.270Z,40.40
2017-09-10T12:06:48.094Z,42.20
2017-09-10T12:09:16.760Z,40.90
2017-09-10T12:11:45.463Z,39.00
2017-09-10T12:14:20.521Z,39.20
2017-09-10T12:16:49.353Z,39.60
2017-09-10T12:19:24.210Z,41.10
2017-09-10T12:21:59.352Z,41.80
2017-09-10T12:24:28.142Z,42.80
2017-09-10T12:26:56.924Z,42.50
2017-09-10T12:29:26.467Z,43.60
2017-09-10T12:32:01.369Z,43.40
2017-09-10T12:34:30.733Z,42.20
2017-09-10T12:36:59.671Z,40.30
2017-09-10T12:39:28.562Z,37.70
2017-09-10T12:41:57.882Z,33.50
2017-09-10T12:44:26.976Z,31.30
2017-09-10T12:47:02.010Z,30.60
2017-09-10T12:49:31.181Z,31.50
2017-09-10T12:51:59.929Z,30.90
2017-09-10T12:54:28.613Z,30.80
2017-09-10T12:57:03.921Z,30.60
2017-09-10T12:59:32.727Z,28.40
2017-09-10T13:02:03.003Z,26.80
2017-09-10T13:04:32.073Z,25.20
2017-09-10T13:07:01.483Z,25.60
2017-09-10T13:09:30.421Z,25.10
2017-09-10T13:12:05.292Z,25.80
2017-09-10T13:14:40.109Z,26.10
2017-09-10T13:17:14.964Z,26.30
2017-09-10T13:19:43.679Z,26.20
2017-09-10T13:22:13.323Z,25.60
2017-09-10T13:24:42.143Z,24.00
2017-09-10T13:27:10.842Z,21.20
2017-09-10T13:29:39.536Z,22.30
2017-09-10T13:32:08.219Z,20.90
2017-09-10T13:34:36.922Z,20.00
2017-09-10T13:37:05.636Z,20.40
2017-09-10T13:39:34.352Z,21.70
2017-09-10T13:42:03.140Z,22.20
2017-09-10T13:44:38.160Z,25.30
2017-09-10T13:47:06.964Z,25.50
2017-09-10T13:49:35.653Z,25.40
2017-09-10T13:52:04.324Z,24.70
2017-09-10T13:54:33.015Z,24.40
2017-09-10T13:57:07.828Z,23.50
2017-09-10T13:59:42.695Z,23.60
2017-09-10T14:02:17.616Z,24.20
2017-09-10T14:04:52.540Z,25.00
2017-09-10T14:07:21.232Z,27.30
2017-09-10T14:09:49.912Z,28.60
2017-09-10T14:12:24.867Z,28.50
2017-09-10T14:14:59.754Z,27.20
2017-09-10T14:17:28.456Z,25.70
2017-09-10T14:19:57.134Z,25.30
2017-09-10T14:22:25.827Z,24.10
2017-09-10T14:25:00.673Z,25.70
2017-09-10T14:27:29.356Z,26.40
2017-09-10T14:29:58.059Z,27.40
2017-09-10T14:32:27.634Z,27.10
2017-09-10T14:34:56.319Z,25.60
2017-09-10T14:37:25.016Z,24.60
2017-09-10T14:39:59.824Z,23.90
2017-09-10T14:42:28.531Z,23.80
2017-09-10T14:44:57.291Z,23.70
2017-09-10T14:47:25.975Z,24.50
2017-09-10T14:49:54.972Z,25.70
2017-09-10T14:52:23.668Z,27.90
2017-09-10T14:54:52.388Z,29.30
2017-09-10T14:57:21.286Z,28.70
2017-09-10T14:59:50.047Z,28.00
2017-09-10T15:02:18.755Z,27.80
2017-09-10T15:04:47.431Z,29.20
2017-09-10T15:07:16.142Z,28.50
2017-09-10T15:09:45.126Z,28.50
2017-09-10T15:12:14.860Z,26.90
2017-09-10T15:14:43.615Z,27.00
2017-09-10T15:17:31.016Z,26.50
2017-09-10T15:20:05.996Z,27.40
2017-09-10T15:22:34.704Z,28.00
2017-09-10T15:25:03.438Z,28.50
2017-09-10T15:27:32.588Z,27.40
2017-09-10T15:30:01.306Z,27.70
2017-09-10T15:32:36.204Z,29.20
2017-09-10T15:35:10.998Z,30.30
2017-09-10T15:37:40.646Z,31.80
2017-09-10T15:40:10.290Z,32.00
2017-09-10T15:42:39.545Z,32.20
2017-09-10T15:45:08.922Z,33.50
2017-09-10T15:47:37.648Z,33.80
2017-09-10T15:50:13.236Z,35.20
2017-09-10T15:52:43.697Z,35.30
2017-09-10T15:55:12.650Z,36.10
2017-09-10T15:57:47.756Z,37.10
2017-09-10T16:00:18.449Z,38.00
2017-09-10T16:02:53.217Z,38.70
2017-09-10T16:05:28.015Z,39.00
2017-09-10T16:07:57.740Z,39.50
2017-09-10T16:10:32.680Z,38.90
2017-09-10T16:13:07.605Z,38.20
2017-09-10T16:15:36.381Z,38.70
2017-09-10T16:18:05.088Z,39.00
2017-09-10T16:20:40.019Z,37.10
2017-09-10T16:23:09.556Z,36.30
2017-09-10T16:25:39.188Z,35.30
2017-09-10T16:28:14.151Z,34.40
2017-09-10T16:30:49.137Z,33.80
2017-09-10T16:33:18.871Z,33.40
2017-09-10T16:35:47.577Z,33.00
2017-09-10T16:38:22.371Z,32.80
2017-09-10T16:40:51.064Z,32.90
2017-09-10T16:43:19.745Z,33.00
2017-09-10T16:45:48.435Z,33.00
2017-09-10T16:48:17.111Z,33.90
2017-09-10T16:50:45.873Z,33.90
2017-09-10T16:53:14.557Z,34.30
2017-09-10T16:55:43.235Z,35.30
2017-09-10T16:58:11.935Z,37.60
2017-09-10T17:00:40.631Z,39.00
2017-09-10T17:03:15.591Z,40.30
2017-09-10T17:05:45.167Z,41.20
2017-09-10T17:08:13.846Z,41.80
2017-09-10T17:10:42.542Z,42.60
2017-09-10T17:13:11.224Z,44.20
2017-09-10T17:15:40.847Z,45.80
2017-09-10T17:18:09.515Z,47.60
2017-09-10T17:20:44.347Z,48.90
2017-09-10T17:23:13.030Z,50.50
2017-09-10T17:25:47.860Z,51.90
2017-09-10T17:28:17.387Z,53.20
2017-09-10T17:30:46.072Z,54.20
2017-09-10T17:33:14.759Z,55.30
2017-09-10T17:35:43.444Z,56.00
2017-09-10T17:38:18.491Z,56.70
2017-09-10T17:40:53.345Z,57.40
2017-09-10T17:43:28.253Z,58.20
2017-09-10T17:46:03.172Z,58.60
2017-09-10T17:48:31.890Z,58.90
2017-09-10T17:51:00.782Z,59.20
2017-09-10T17:53:30.510Z,59.80
2017-09-10T17:55:59.221Z,60.40
2017-09-10T17:58:27.985Z,60.90
2017-09-10T18:00:56.668Z,61.20
2017-09-10T18:03:25.376Z,61.50
2017-09-10T18:05:54.186Z,61.80
2017-09-10T18:08:25.912Z,61.70
2017-09-10T18:10:54.592Z,62.10
2017-09-10T18:13:23.278Z,62.30
2017-09-10T18:15:55.179Z,62.30
2017-09-10T18:18:23.861Z,62.50
2017-09-10T18:20:52.540Z,62.50
2017-09-10T18:23:39.879Z,62.60
2017-09-10T18:26:08.555Z,62.80
2017-09-10T18:28:37.262Z,62.80
2017-09-10T18:31:05.936Z,63.00
2017-09-10T18:33:40.910Z,63.30
2017-09-10T18:36:09.591Z,63.40
2017-09-10T18:38:42.124Z,63.50
2017-09-10T18:41:10.808Z,63.50
2017-09-10T18:43:46.755Z,63.60
2017-09-10T18:46:15.693Z,63.80
2017-09-10T18:48:44.372Z,63.80
2017-09-10T18:51:13.063Z,63.60
2017-09-10T18:53:41.750Z,63.70
2017-09-10T18:56:10.450Z,63.90
2017-09-10T18:58:39.128Z,63.80
2017-09-10T19:01:07.844Z,63.80
2017-09-10T19:03:37.378Z,64.00
2017-09-10T19:06:08.257Z,64.10
2017-09-10T19:08:37.134Z,64.10
2017-09-10T19:11:05.816Z,64.10
2017-09-10T19:13:34.509Z,64.10
2017-09-10T19:16:09.469Z,64.30
2017-09-10T19:18:38.152Z,64.30
2017-09-10T19:21:06.865Z,64.40
2017-09-10T19:23:35.548Z,64.50
2017-09-10T19:26:10.387Z,64.50
2017-09-10T19:28:39.734Z,64.60
2017-09-10T19:31:14.671Z,64.60
2017-09-10T19:33:43.354Z,64.60
2017-09-10T19:36:12.903Z,64.50
2017-09-10T19:38:41.603Z,64.50
2017-09-10T19:41:10.286Z,64.70
2017-09-10T19:43:38.999Z,64.80
2017-09-10T19:46:07.683Z,64.60
2017-09-10T19:48:36.390Z,64.60
2017-09-10T19:51:05.070Z,64.40
2017-09-10T19:53:33.762Z,64.20
2017-09-10T19:56:02.480Z,64.20
2017-09-10T19:58:32.155Z,64.10
2017-09-10T20:01:00.820Z,64.30
2017-09-10T20:03:30.427Z,64.10
2017-09-10T20:06:05.235Z,64.20
2017-09-10T20:08:40.379Z,63.90
2017-09-10T20:11:09.073Z,63.90
2017-09-10T20:13:43.912Z,64.20
2017-09-10T20:16:12.603Z,64.20
2017-09-10T20:18:41.287Z,64.20
2017-09-10T20:21:10.016Z,64.20
2017-09-10T20:23:44.826Z,64.40
2017-09-10T20:26:14.376Z,64.20
2017-09-10T20:28:43.935Z,64.10
2017-09-10T20:31:12.614Z,64.00
2017-09-10T20:33:42.159Z,63.80
2017-09-10T20:36:10.840Z,63.80
2017-09-10T20:38:39.551Z,63.90
2017-09-10T20:41:08.417Z,64.00
2017-09-10T20:43:37.100Z,64.00
2017-09-10T20:46:06.711Z,63.80
2017-09-10T20:48:36.307Z,63.80
2017-09-10T20:51:05.003Z,63.80
2017-09-10T20:53:33.687Z,63.80
2017-09-10T20:56:02.388Z,63.80
2017-09-10T20:58:31.079Z,64.00
2017-09-10T21:01:05.981Z,64.10
2017-09-10T21:03:34.663Z,64.10
2017-09-10T21:06:03.354Z,64.00
2017-09-10T21:08:32.083Z,64.10
2017-09-10T21:11:06.997Z,64.10
2017-09-10T21:13:43.271Z,64.00
2017-09-10T21:16:18.160Z,64.20
2017-09-10T21:18:46.867Z,64.30
2017-09-10T21:21:15.561Z,64.30
2017-09-10T21:23:44.247Z,64.30
2017-09-10T21:26:12.938Z,64.30
2017-09-10T21:28:41.660Z,64.50
2017-09-10T21:31:16.676Z,64.60
2017-09-10T21:33:51.557Z,64.90
2017-09-10T21:36:20.244Z,64.70
2017-09-10T21:38:48.947Z,64.60
2017-09-10T21:41:17.623Z,64.60
2017-09-10T21:43:48.160Z,64.70
2017-09-10T21:46:16.886Z,64.70
2017-09-10T21:48:45.602Z,64.70
2017-09-10T21:51:20.408Z,64.70
2017-09-10T21:53:49.103Z,64.50
2017-09-10T21:56:17.779Z,64.50
2017-09-10T21:58:46.459Z,64.50
2017-09-10T22:01:15.143Z,64.40
2017-09-10T22:03:43.831Z,64.50
2017-09-10T22:06:12.529Z,64.60
2017-09-10T22:08:47.327Z,64.80
2017-09-10T22:11:18.120Z,65.00
2017-09-10T22:13:48.746Z,65.30
2017-09-10T22:16:17.535Z,65.60
2017-09-10T22:18:46.232Z,65.80
2017-09-10T22:21:14.907Z,65.80
2017-09-10T22:23:43.635Z,65.80
2017-09-10T22:26:18.428Z,65.80
2017-09-10T22:28:48.127Z,65.40
2017-09-10T22:31:16.820Z,65.30
2017-09-10T22:33:52.755Z,65.60
2017-09-10T22:36:21.435Z,65.40
2017-09-10T22:38:50.119Z,65.10
2017-09-10T22:41:18.803Z,65.20
2017-09-10T22:43:47.490Z,65.20
2017-09-10T22:46:16.224Z,65.20
2017-09-10T22:48:44.906Z,65.10
2017-09-10T22:51:13.598Z,65.20
2017-09-10T22:53:42.288Z,65.40
2017-09-10T22:56:17.215Z,65.40
2017-09-10T22:58:45.910Z,65.40
2017-09-10T23:01:14.596Z,65.30
2017-09-10T23:03:43.280Z,65.40
2017-09-10T23:06:11.979Z,65.70
2017-09-10T23:08:46.833Z,65.90
2017-09-10T23:11:15.544Z,66.00
2017-09-10T23:13:50.310Z,66.10
2017-09-10T23:16:19.015Z,66.00
2017-09-10T23:18:47.698Z,65.80
2017-09-10T23:21:16.383Z,65.70
2017-09-10T23:23:45.066Z,65.60
2017-09-10T23:26:13.755Z,65.80
2017-09-10T23:28:42.455Z,65.60
2017-09-10T23:31:11.126Z,65.20
2017-09-10T23:33:39.807Z,64.40
2017-09-10T23:36:08.495Z,63.90
2017-09-10T23:38:37.174Z,63.70
2017-09-10T23:41:05.883Z,63.60
2017-09-10T23:43:34.667Z,64.00
2017-09-10T23:46:03.342Z,63.90
2017-09-10T23:48:33.899Z,63.50
2017-09-10T23:51:02.582Z,63.80
2017-09-10T23:53:31.287Z,64.00
2017-09-10T23:55:59.975Z,64.20
2017-09-10T23:58:28.654Z,64.70
